createdAt,value
2022-08-12T00:00:26.348Z,69.76
2022-08-12T00:01:26.977Z,70.06
2022-08-12T00:02:27.337Z,69.96
2022-08-12T00:03:26.394Z,69.96
2022-08-12T00:04:26.320Z,70.50
2022-08-12T00:05:26.299Z,71.00
2022-08-12T00:06:26.280Z,71.20
2022-08-12T00:07:26.269Z,70.69
2022-08-12T00:08:30.887Z,70.50
2022-08-12T00:09:27.256Z,70.89
2022-08-12T00:10:26.261Z,70.89
2022-08-12T00:11:26.228Z,70.69
2022-08-12T00:12:26.212Z,70.59
2022-08-12T00:13:26.217Z,71.23
2022-08-12T00:14:26.191Z,71.39
2022-08-12T00:15:26.187Z,71.03
2022-08-12T00:16:26.168Z,71.43
2022-08-12T00:17:26.158Z,71.13
2022-08-12T00:18:26.161Z,71.33
2022-08-12T00:19:26.138Z,71.73
2022-08-12T00:20:26.122Z,71.93
2022-08-12T00:21:26.677Z,71.73
2022-08-12T00:22:26.102Z,71.83
2022-08-12T00:23:26.123Z,72.03
2022-08-12T00:24:26.077Z,71.97
2022-08-12T00:26:05.565Z,72.03
2022-08-12T00:26:27.057Z,71.86
2022-08-12T00:27:27.540Z,72.06
2022-08-12T00:28:27.051Z,72.63
2022-08-12T00:29:26.036Z,72.06
2022-08-12T00:30:26.010Z,72.13
2022-08-12T00:31:26.006Z,72.17
2022-08-12T00:32:35.453Z,72.17
2022-08-12T00:33:32.286Z,72.77
2022-08-12T00:34:26.977Z,72.47
2022-08-12T00:35:36.234Z,72.06
2022-08-12T00:36:34.905Z,72.67
2022-08-12T00:37:28.305Z,71.97
2022-08-12T00:38:25.931Z,72.87
2022-08-12T00:39:25.967Z,72.97
2022-08-12T00:40:25.905Z,73.07
2022-08-12T00:41:25.892Z,72.77
2022-08-12T00:42:25.878Z,72.97
2022-08-12T00:43:25.872Z,72.67
2022-08-12T00:44:25.862Z,73.07
2022-08-12T00:45:25.862Z,72.97
2022-08-12T00:46:25.854Z,73.41
2022-08-12T00:47:26.151Z,73.17
2022-08-12T00:48:25.816Z,73.30
2022-08-12T00:49:25.798Z,73.21
2022-08-12T00:50:25.805Z,73.30
2022-08-12T00:51:25.778Z,73.67
2022-08-12T00:52:25.778Z,73.67
2022-08-12T00:53:25.756Z,73.77
2022-08-12T00:54:25.750Z,73.97
2022-08-12T00:55:25.745Z,73.61
2022-08-12T00:56:25.729Z,73.71
2022-08-12T00:57:25.712Z,74.71
2022-08-12T00:58:25.706Z,73.91
2022-08-12T00:59:25.729Z,74.91
2022-08-12T01:00:25.682Z,74.21
2022-08-12T01:01:26.509Z,73.81
2022-08-12T01:02:25.658Z,74.68
2022-08-12T01:03:25.647Z,73.61
2022-08-12T01:04:25.639Z,73.61
2022-08-12T01:05:25.659Z,74.51
2022-08-12T01:06:25.616Z,74.41
2022-08-12T01:07:25.612Z,74.21
2022-08-12T01:08:25.597Z,74.41
2022-08-12T01:09:25.582Z,74.51
2022-08-12T01:10:29.486Z,74.21
2022-08-12T01:11:26.562Z,74.71
2022-08-12T01:12:25.554Z,74.61
2022-08-12T01:13:25.569Z,74.21
2022-08-12T01:14:25.527Z,74.61
2022-08-12T01:15:25.544Z,74.35
2022-08-12T01:16:25.503Z,74.31
2022-08-12T01:17:25.489Z,74.35
2022-08-12T01:18:25.484Z,74.65
2022-08-12T01:19:25.468Z,74.65
2022-08-12T01:20:25.461Z,74.44
2022-08-12T01:21:25.461Z,75.05
2022-08-12T01:22:25.437Z,74.55
2022-08-12T01:23:25.435Z,75.59
2022-08-12T01:24:31.058Z,75.18
2022-08-12T01:25:26.410Z,74.88
2022-08-12T01:26:25.410Z,74.88
2022-08-12T01:27:25.399Z,74.88
2022-08-12T01:28:25.369Z,75.38
2022-08-12T01:29:25.359Z,74.98
2022-08-12T01:30:25.351Z,75.49
2022-08-12T01:31:25.966Z,75.22
2022-08-12T01:32:25.342Z,75.18
2022-08-12T01:33:25.364Z,75.52
2022-08-12T01:34:35.840Z,75.22
2022-08-12T01:35:26.289Z,75.52
2022-08-12T01:36:25.293Z,75.92
2022-08-12T01:37:25.350Z,75.68
2022-08-12T01:38:29.478Z,75.72
2022-08-12T01:39:25.312Z,75.89
2022-08-12T01:40:36.149Z,75.72
2022-08-12T01:41:26.221Z,75.32
2022-08-12T01:42:25.240Z,75.49
2022-08-12T01:43:25.203Z,75.09
2022-08-12T01:44:25.193Z,75.49
2022-08-12T01:45:25.237Z,75.38
2022-08-12T01:46:25.174Z,75.99
2022-08-12T01:47:25.157Z,75.49
2022-08-12T01:48:25.164Z,75.89
2022-08-12T01:49:25.132Z,75.79
2022-08-12T01:50:25.132Z,75.59
2022-08-12T01:52:14.783Z,75.89
2022-08-12T01:52:26.142Z,75.29
2022-08-12T01:53:25.109Z,75.72
2022-08-12T01:54:25.086Z,75.82
2022-08-12T01:55:25.071Z,76.03
2022-08-12T01:56:25.071Z,76.32
2022-08-12T01:57:59.575Z,75.92
2022-08-12T01:58:26.059Z,76.32
2022-08-12T01:59:25.022Z,76.12
2022-08-12T02:00:35.923Z,76.43
2022-08-12T02:01:26.087Z,76.53
2022-08-12T02:02:24.997Z,76.03
2022-08-12T02:03:24.990Z,76.53
2022-08-12T02:04:24.974Z,76.53
2022-08-12T02:05:24.951Z,76.93
2022-08-12T02:06:24.946Z,76.83
2022-08-12T02:07:24.933Z,76.73
2022-08-12T02:08:24.949Z,76.93
2022-08-12T02:09:24.914Z,76.76
2022-08-12T02:10:49.933Z,76.76
2022-08-12T02:11:25.891Z,76.87
2022-08-12T02:12:24.879Z,76.97
2022-08-12T02:13:48.219Z,77.07
2022-08-12T02:14:25.861Z,76.87
2022-08-12T02:15:24.849Z,76.83
2022-08-12T02:16:24.860Z,76.97
2022-08-12T02:17:54.806Z,76.56
2022-08-12T02:18:25.817Z,76.87
2022-08-12T02:19:24.803Z,77.07
2022-08-12T02:20:24.812Z,76.76
2022-08-12T02:21:25.796Z,76.90
2022-08-12T02:22:24.776Z,76.97
2022-08-12T02:23:24.758Z,77.11
2022-08-12T02:24:24.752Z,77.11
2022-08-12T02:25:24.744Z,77.11
2022-08-12T02:26:24.731Z,76.90
2022-08-12T02:27:24.723Z,76.70
2022-08-12T02:28:24.709Z,76.80
2022-08-12T02:29:24.711Z,77.00
2022-08-12T02:30:24.682Z,77.34
2022-08-12T02:31:24.674Z,77.61
2022-08-12T02:32:24.661Z,77.44
2022-08-12T02:33:24.649Z,77.84
2022-08-12T02:34:24.644Z,77.24
2022-08-12T02:35:24.687Z,77.64
2022-08-12T02:36:24.616Z,77.55
2022-08-12T02:37:24.606Z,77.64
2022-08-12T02:38:24.597Z,77.34
2022-08-12T02:39:24.661Z,77.64
2022-08-12T02:40:24.581Z,77.84
2022-08-12T02:41:24.570Z,77.64
2022-08-12T02:42:24.546Z,77.64
2022-08-12T02:43:24.538Z,77.64
2022-08-12T02:44:24.539Z,77.64
2022-08-12T02:45:24.511Z,78.25
2022-08-12T02:46:24.518Z,77.95
2022-08-12T02:47:58.530Z,78.19
2022-08-12T02:48:25.493Z,77.98
2022-08-12T02:49:24.465Z,78.08
2022-08-12T02:50:24.462Z,78.39
2022-08-12T02:51:24.479Z,78.19
2022-08-12T02:52:24.440Z,78.59
2022-08-12T02:53:24.422Z,78.39
2022-08-12T02:54:24.423Z,78.59
2022-08-12T02:55:28.624Z,78.39
2022-08-12T02:56:25.402Z,78.49
2022-08-12T02:57:24.376Z,78.08
2022-08-12T02:58:32.924Z,78.59
2022-08-12T02:59:25.364Z,78.28
2022-08-12T03:00:24.352Z,78.79
2022-08-12T03:01:24.418Z,78.49
2022-08-12T03:02:24.330Z,78.49
2022-08-12T03:03:24.312Z,78.59
2022-08-12T03:04:24.348Z,78.79
2022-08-12T03:05:24.289Z,78.69
2022-08-12T03:06:24.293Z,78.69
2022-08-12T03:07:27.782Z,78.69
2022-08-12T03:08:31.434Z,78.69
2022-08-12T03:09:24.273Z,78.59
2022-08-12T03:10:37.526Z,78.79
2022-08-12T03:11:25.259Z,78.69
2022-08-12T03:12:24.233Z,78.99
2022-08-12T03:13:24.203Z,78.79
2022-08-12T03:14:24.194Z,78.79
2022-08-12T03:15:24.192Z,78.59
2022-08-12T03:16:24.177Z,78.52
2022-08-12T03:17:24.170Z,78.59
2022-08-12T03:18:27.716Z,78.49
2022-08-12T03:19:24.160Z,78.99
2022-08-12T03:20:28.356Z,78.69
2022-08-12T03:22:05.605Z,78.69
2022-08-12T03:22:25.108Z,78.59
2022-08-12T03:23:29.843Z,78.59
2022-08-12T03:24:25.095Z,78.39
2022-08-12T03:25:24.070Z,78.63
2022-08-12T03:26:24.072Z,78.59
2022-08-12T03:27:24.061Z,78.92
2022-08-12T03:28:24.260Z,78.79
2022-08-12T03:29:24.024Z,78.42
2022-08-12T03:30:24.022Z,78.52
2022-08-12T03:31:24.012Z,78.89
2022-08-12T03:32:35.498Z,78.49
2022-08-12T03:33:24.983Z,78.28
2022-08-12T03:34:23.977Z,78.52
2022-08-12T03:35:40.085Z,78.92
2022-08-12T03:36:24.971Z,78.69
2022-08-12T03:37:23.939Z,79.23
2022-08-12T03:38:23.936Z,78.99
2022-08-12T03:39:36.239Z,79.23
2022-08-12T03:40:24.913Z,79.23
2022-08-12T03:41:23.906Z,79.23
2022-08-12T03:42:23.886Z,79.03
2022-08-12T03:43:23.875Z,79.93
2022-08-12T03:44:25.655Z,79.53
2022-08-12T03:45:23.852Z,79.93
2022-08-12T03:46:23.855Z,79.43
2022-08-12T03:47:23.828Z,79.36
2022-08-12T03:48:23.816Z,79.63
2022-08-12T03:49:23.808Z,79.53
2022-08-12T03:50:23.803Z,79.87
2022-08-12T03:51:23.796Z,79.53
2022-08-12T03:52:23.786Z,79.67
2022-08-12T03:53:23.767Z,79.67
2022-08-12T03:54:23.754Z,79.77
2022-08-12T03:55:23.737Z,80.07
2022-08-12T03:56:23.735Z,79.67
2022-08-12T03:57:23.725Z,79.67
2022-08-12T03:58:24.504Z,79.77
2022-08-12T03:59:23.698Z,79.73
2022-08-12T04:00:24.559Z,79.83
2022-08-12T04:01:23.720Z,79.06
2022-08-12T04:02:23.668Z,79.23
2022-08-12T04:03:23.649Z,79.16
2022-08-12T04:04:23.657Z,79.57
2022-08-12T04:05:23.634Z,79.87
2022-08-12T04:06:35.852Z,79.97
2022-08-12T04:07:24.610Z,79.57
2022-08-12T04:08:23.602Z,79.36
2022-08-12T04:09:23.587Z,80.47
2022-08-12T04:10:23.575Z,79.36
2022-08-12T04:11:23.585Z,79.57
2022-08-12T04:12:23.567Z,79.47
2022-08-12T04:13:23.539Z,79.27
2022-08-12T04:14:23.528Z,80.47
2022-08-12T04:15:23.519Z,79.77
2022-08-12T04:16:23.521Z,79.57
2022-08-12T04:17:23.515Z,79.97
2022-08-12T04:18:23.505Z,79.97
2022-08-12T04:19:23.472Z,79.97
2022-08-12T04:20:23.469Z,79.77
2022-08-12T04:21:25.244Z,79.67
2022-08-12T04:22:23.463Z,79.61
2022-08-12T04:23:23.428Z,79.36
2022-08-12T04:24:23.426Z,79.97
2022-08-12T04:25:23.408Z,80.38
2022-08-12T04:26:23.405Z,80.27
2022-08-12T04:27:23.395Z,80.21
2022-08-12T04:28:23.376Z,80.07
2022-08-12T04:30:17.010Z,80.11
2022-08-12T04:30:33.287Z,79.81
2022-08-12T04:31:24.344Z,79.87
2022-08-12T04:32:23.352Z,79.97
2022-08-12T04:33:23.335Z,79.91
2022-08-12T04:34:23.313Z,80.01
2022-08-12T04:35:23.302Z,80.01
2022-08-12T04:36:23.292Z,80.11
2022-08-12T04:37:23.346Z,80.31
2022-08-12T04:38:23.264Z,80.11
2022-08-12T04:39:23.282Z,80.41
2022-08-12T04:40:28.396Z,80.41
2022-08-12T04:41:24.251Z,80.11
2022-08-12T04:42:23.246Z,80.41
2022-08-12T04:43:59.702Z,80.21
2022-08-12T04:44:24.211Z,80.11
2022-08-12T04:45:23.190Z,80.51
2022-08-12T04:46:26.423Z,80.72
2022-08-12T04:47:24.184Z,80.72
2022-08-12T04:48:23.157Z,80.51
2022-08-12T04:49:23.145Z,80.31
2022-08-12T04:50:34.802Z,80.62
2022-08-12T04:51:24.121Z,80.72
2022-08-12T04:52:23.135Z,80.92
2022-08-12T04:53:23.109Z,80.62
2022-08-12T04:54:23.267Z,80.62
2022-08-12T04:55:23.077Z,80.92
2022-08-12T04:56:23.085Z,81.32
2022-08-12T04:57:23.057Z,80.72
2022-08-12T04:58:29.249Z,81.82
2022-08-12T04:59:24.031Z,81.12
2022-08-12T05:00:23.038Z,81.62
2022-08-12T05:01:23.014Z,81.67
2022-08-12T05:02:23.218Z,81.82
2022-08-12T05:03:23.003Z,81.62
2022-08-12T05:04:22.986Z,81.62
2022-08-12T05:05:22.967Z,81.42
2022-08-12T05:06:26.923Z,81.82
2022-08-12T05:07:22.946Z,81.12
2022-08-12T05:08:22.947Z,81.02
2022-08-12T05:09:22.933Z,81.22
2022-08-12T05:10:33.798Z,81.93
2022-08-12T05:11:23.912Z,81.82
2022-08-12T05:12:22.896Z,82.03
2022-08-12T05:13:22.901Z,81.62
2022-08-12T05:14:22.867Z,81.73
2022-08-12T05:15:29.160Z,81.89
2022-08-12T05:16:27.195Z,81.18
2022-08-12T05:17:23.835Z,80.98
2022-08-12T05:18:22.836Z,81.48
2022-08-12T05:19:22.933Z,81.18
2022-08-12T05:20:22.861Z,81.08
2022-08-12T05:21:22.791Z,80.88
2022-08-12T05:22:22.777Z,81.18
2022-08-12T05:23:22.783Z,81.18
2022-08-12T05:24:22.754Z,81.38
2022-08-12T05:25:22.748Z,81.28
2022-08-12T05:26:22.748Z,81.28
2022-08-12T05:27:22.738Z,81.38
2022-08-12T05:28:22.715Z,80.84
2022-08-12T05:30:07.042Z,80.74
2022-08-12T05:30:23.691Z,80.78
2022-08-12T05:31:40.316Z,81.24
2022-08-12T05:32:23.665Z,81.15
2022-08-12T05:33:22.681Z,80.94
2022-08-12T05:34:26.613Z,80.74
2022-08-12T05:35:22.685Z,81.15
2022-08-12T05:36:22.628Z,80.54
2022-08-12T05:37:22.622Z,80.60
2022-08-12T05:38:22.620Z,80.10
2022-08-12T05:39:22.653Z,79.80
2022-08-12T05:40:22.582Z,79.76
2022-08-12T05:41:22.568Z,79.36
2022-08-12T05:42:22.562Z,79.02
2022-08-12T05:43:23.577Z,78.41
2022-08-12T05:44:22.534Z,78.38
2022-08-12T05:45:22.532Z,77.87
2022-08-12T05:46:22.513Z,77.77
2022-08-12T05:47:22.529Z,77.33
2022-08-12T05:48:23.495Z,77.20
2022-08-12T05:49:22.490Z,76.32
2022-08-12T05:50:22.471Z,74.98
2022-08-12T05:51:22.469Z,74.68
2022-08-12T05:52:22.446Z,74.65
2022-08-12T05:53:22.437Z,73.41
2022-08-12T05:54:47.343Z,73.37
2022-08-12T05:55:26.985Z,73.27
2022-08-12T05:56:23.398Z,73.27
2022-08-12T05:57:22.394Z,73.33
2022-08-12T05:58:22.396Z,72.90
2022-08-12T05:59:22.372Z,72.47
2022-08-12T06:00:22.370Z,71.96
2022-08-12T06:02:12.242Z,70.23
2022-08-12T06:02:23.350Z,70.03
2022-08-12T06:03:22.376Z,69.79
2022-08-12T06:04:22.314Z,69.26
2022-08-12T06:05:22.315Z,68.36
2022-08-12T06:06:22.427Z,68.26
2022-08-12T06:07:59.174Z,68.43
2022-08-12T06:08:23.274Z,67.93
2022-08-12T06:09:22.267Z,67.93
2022-08-12T06:10:32.219Z,67.79
2022-08-12T06:11:23.246Z,67.46
2022-08-12T06:12:22.224Z,67.13
2022-08-12T06:13:28.057Z,66.33
2022-08-12T06:14:22.204Z,66.93
2022-08-12T06:15:22.200Z,65.90
2022-08-12T06:16:22.195Z,65.56
2022-08-12T06:17:22.175Z,64.87
2022-08-12T06:18:24.459Z,64.84
2022-08-12T06:19:23.160Z,64.28
2022-08-12T06:20:29.438Z,63.45
2022-08-12T06:21:23.139Z,63.32
2022-08-12T06:22:22.117Z,62.92
2022-08-12T06:23:22.106Z,62.29
2022-08-12T06:24:22.105Z,62.76
2022-08-12T06:25:22.358Z,61.64
2022-08-12T06:26:22.071Z,61.24
2022-08-12T06:27:22.075Z,61.01
2022-08-12T06:28:22.050Z,60.39
2022-08-12T06:30:07.466Z,59.86
2022-08-12T06:30:33.504Z,59.96
2022-08-12T06:31:26.270Z,60.53
2022-08-12T06:32:22.006Z,59.53
2022-08-12T06:33:25.049Z,58.61
2022-08-12T06:35:24.277Z,58.02
2022-08-12T06:35:47.631Z,56.63
2022-08-12T06:36:22.988Z,57.92
2022-08-12T06:37:21.956Z,55.83
2022-08-12T06:38:21.946Z,56.04
2022-08-12T06:39:21.961Z,57.99
2022-08-12T06:40:21.924Z,57.59
2022-08-12T06:41:21.939Z,54.79
2022-08-12T06:42:32.357Z,54.49
2022-08-12T06:43:22.904Z,56.25
2022-08-12T06:44:21.875Z,56.32
2022-08-12T06:45:21.868Z,56.49
2022-08-12T06:46:21.870Z,55.18
2022-08-12T06:47:21.968Z,54.79
2022-08-12T06:48:21.838Z,52.71
2022-08-12T06:49:21.824Z,51.54
2022-08-12T06:50:21.810Z,50.95
2022-08-12T06:51:21.848Z,50.66
2022-08-12T06:52:21.794Z,50.26
2022-08-12T06:53:21.783Z,50.46
2022-08-12T06:54:31.255Z,50.16
2022-08-12T06:55:22.772Z,51.94
2022-08-12T06:56:27.352Z,50.24
2022-08-12T06:58:05.861Z,49.05
2022-08-12T06:58:22.735Z,50.81
2022-08-12T06:59:22.765Z,50.21
2022-08-12T07:00:21.703Z,49.10
2022-08-12T07:01:22.772Z,50.09
2022-08-12T07:02:21.829Z,50.26
2022-08-12T07:03:23.368Z,47.42
2022-08-12T07:04:38.741Z,47.72
2022-08-12T07:05:22.655Z,46.83
2022-08-12T07:06:21.661Z,47.77
2022-08-12T07:07:21.638Z,47.39
2022-08-12T07:08:21.628Z,49.79
2022-08-12T07:10:05.774Z,49.47
2022-08-12T07:10:22.619Z,49.96
2022-08-12T07:11:21.600Z,49.87
2022-08-12T07:12:21.590Z,49.15
2022-08-12T07:13:21.577Z,47.29
2022-08-12T07:14:21.559Z,48.08
2022-08-12T07:15:21.567Z,47.52
2022-08-12T07:16:21.564Z,47.78
2022-08-12T07:17:21.532Z,46.60
2022-08-12T07:18:21.519Z,47.19
2022-08-12T07:19:21.508Z,48.08
2022-08-12T07:20:50.258Z,47.39
2022-08-12T07:21:22.518Z,47.31
2022-08-12T07:22:21.474Z,49.57
2022-08-12T07:23:21.468Z,47.89
2022-08-12T07:24:21.497Z,49.10
2022-08-12T07:25:21.451Z,47.39
2022-08-12T07:26:21.435Z,50.06
2022-08-12T07:27:21.440Z,49.77
2022-08-12T07:28:21.408Z,51.75
2022-08-12T07:29:21.410Z,49.64
2022-08-12T07:30:21.385Z,48.46
2022-08-12T07:31:21.382Z,47.17
2022-08-12T07:32:21.384Z,47.86
2022-08-12T07:33:21.360Z,47.86
2022-08-12T07:34:21.348Z,47.94
2022-08-12T07:35:21.345Z,51.20
2022-08-12T07:36:21.321Z,47.77
2022-08-12T07:37:21.433Z,46.78
2022-08-12T07:38:29.702Z,46.58
2022-08-12T07:39:22.332Z,45.49
2022-08-12T07:40:21.284Z,46.67
2022-08-12T07:41:21.273Z,46.97
2022-08-12T07:42:21.273Z,46.70
2022-08-12T07:43:21.250Z,46.58
2022-08-12T07:44:21.240Z,46.97
2022-08-12T07:45:21.231Z,47.47
2022-08-12T07:46:21.219Z,47.07
2022-08-12T07:47:21.335Z,49.64
2022-08-12T07:48:21.201Z,49.32
2022-08-12T07:49:21.182Z,49.42
2022-08-12T07:50:23.819Z,45.89
2022-08-12T07:51:24.750Z,45.98
2022-08-12T07:52:21.229Z,45.89
2022-08-12T07:53:21.154Z,45.68
2022-08-12T07:54:21.125Z,46.38
2022-08-12T07:55:21.122Z,45.67
2022-08-12T07:56:21.104Z,46.36
2022-08-12T07:57:21.161Z,46.55
2022-08-12T07:58:21.486Z,45.79
2022-08-12T07:59:21.083Z,46.16
2022-08-12T08:00:21.283Z,45.57
2022-08-12T08:01:28.727Z,45.57
2022-08-12T08:02:21.089Z,46.66
2022-08-12T08:03:22.067Z,45.07
2022-08-12T08:04:21.039Z,44.56
2022-08-12T08:05:21.017Z,45.07
2022-08-12T08:06:20.995Z,46.23
2022-08-12T08:07:21.002Z,46.93
2022-08-12T08:08:20.974Z,46.04
2022-08-12T08:09:20.986Z,43.96
2022-08-12T08:10:21.074Z,44.56
2022-08-12T08:11:20.980Z,45.64
2022-08-12T08:12:20.990Z,46.53
2022-08-12T08:13:20.922Z,46.14
2022-08-12T08:14:20.931Z,47.03
2022-08-12T08:15:21.007Z,44.83
2022-08-12T08:16:20.898Z,45.62
2022-08-12T08:17:20.915Z,44.34
2022-08-12T08:18:26.532Z,44.83
2022-08-12T08:19:20.858Z,44.64
2022-08-12T08:20:20.866Z,45.92
2022-08-12T08:21:20.850Z,46.01
2022-08-12T08:22:24.941Z,45.42
2022-08-12T08:23:21.843Z,45.42
2022-08-12T08:24:20.840Z,46.11
2022-08-12T08:25:35.915Z,44.43
2022-08-12T08:26:21.793Z,44.34
2022-08-12T08:27:20.785Z,43.82
2022-08-12T08:28:20.759Z,43.23
2022-08-12T08:29:20.748Z,42.83
2022-08-12T08:30:20.841Z,44.91
2022-08-12T08:31:20.752Z,45.60
2022-08-12T08:32:20.746Z,46.17
2022-08-12T08:33:24.456Z,47.16
2022-08-12T08:34:47.289Z,44.49
2022-08-12T08:35:21.682Z,44.10
2022-08-12T08:36:23.955Z,43.48
2022-08-12T08:37:20.687Z,43.78
2022-08-12T08:38:33.039Z,43.78
2022-08-12T08:39:21.717Z,43.59
2022-08-12T08:40:20.630Z,42.10
2022-08-12T08:42:17.366Z,43.59
2022-08-12T08:42:21.604Z,43.68
2022-08-12T08:43:20.595Z,41.41
2022-08-12T08:44:20.582Z,43.29
2022-08-12T08:45:20.596Z,41.91
2022-08-12T08:46:20.572Z,42.10
2022-08-12T08:47:20.552Z,42.79
2022-08-12T08:48:20.539Z,44.45
2022-08-12T08:49:20.532Z,43.66
2022-08-12T08:50:20.532Z,44.33
2022-08-12T08:51:20.538Z,43.24
2022-08-12T08:52:38.873Z,41.67
2022-08-12T08:53:21.488Z,42.07
2022-08-12T08:54:20.496Z,41.67
2022-08-12T08:55:27.428Z,42.36
2022-08-12T08:56:21.473Z,44.23
2022-08-12T08:57:20.445Z,44.03
2022-08-12T08:58:20.430Z,41.94
2022-08-12T08:59:20.427Z,42.46
2022-08-12T09:00:20.427Z,43.54
2022-08-12T09:01:20.733Z,39.89
2022-08-12T09:02:20.473Z,40.19
2022-08-12T09:05:12.892Z,43.32
2022-08-12T09:05:13.106Z,42.73
2022-08-12T09:05:24.808Z,42.73
2022-08-12T09:06:20.374Z,42.71
2022-08-12T09:07:43.776Z,43.30
2022-08-12T09:09:21.319Z,44.58
2022-08-12T09:10:32.349Z,41.43
2022-08-12T09:12:06.710Z,41.11
2022-08-12T09:12:27.263Z,40.16
2022-08-12T09:13:23.340Z,43.77
2022-08-12T09:14:29.411Z,40.92
2022-08-12T09:15:21.246Z,41.31
2022-08-12T09:16:20.726Z,40.53
2022-08-12T09:17:21.199Z,39.05
2022-08-12T09:18:26.702Z,39.25
2022-08-12T09:19:27.562Z,40.01
2022-08-12T09:20:21.199Z,40.21
2022-08-12T09:21:21.183Z,41.27
2022-08-12T09:22:20.849Z,41.08
2022-08-12T09:24:00.666Z,39.48
2022-08-12T09:24:21.165Z,39.40
2022-08-12T09:25:25.840Z,41.56
2022-08-12T09:26:21.134Z,39.78
2022-08-12T09:27:20.126Z,39.48
2022-08-12T09:28:20.541Z,38.23
2022-08-12T09:30:09.853Z,38.52
2022-08-12T09:30:41.964Z,38.13
2022-08-12T09:32:02.659Z,37.84
2022-08-12T09:32:31.403Z,39.39
2022-08-12T09:34:25.545Z,39.48
2022-08-12T09:34:27.804Z,38.31
2022-08-12T09:35:22.254Z,40.08
2022-08-12T09:36:31.441Z,39.68
2022-08-12T09:37:22.330Z,39.37
2022-08-12T09:38:27.872Z,39.95
2022-08-12T09:40:04.999Z,37.99
2022-08-12T09:40:57.312Z,38.68
2022-08-12T09:42:09.477Z,37.90
2022-08-12T09:42:40.381Z,37.50
2022-08-12T09:43:21.390Z,37.21
2022-08-12T09:44:38.177Z,37.21
2022-08-12T09:45:23.073Z,37.90
2022-08-12T09:46:22.234Z,38.96
2022-08-12T09:47:20.905Z,37.38
2022-08-12T09:48:22.093Z,35.54
2022-08-12T09:49:24.025Z,37.38
2022-08-12T09:50:20.966Z,35.83
2022-08-12T09:51:22.601Z,36.13
2022-08-12T09:52:20.086Z,36.62
2022-08-12T09:53:35.914Z,35.74
2022-08-12T09:54:33.900Z,36.42
2022-08-12T09:56:06.702Z,36.52
2022-08-12T09:56:57.158Z,36.13
2022-08-12T09:58:45.629Z,36.13
2022-08-12T09:58:57.900Z,37.09
2022-08-12T10:00:17.900Z,36.13
2022-08-12T10:00:29.256Z,36.70
2022-08-12T10:01:23.266Z,36.40
2022-08-12T10:02:45.561Z,36.51
2022-08-12T10:03:31.725Z,34.74
2022-08-12T10:04:20.963Z,35.82
2022-08-12T10:05:20.616Z,36.30
2022-08-12T10:06:31.490Z,36.51
2022-08-12T10:07:24.820Z,37.19
2022-08-12T10:08:19.693Z,37.29
2022-08-12T10:09:19.667Z,35.72
2022-08-12T10:10:23.071Z,35.33
2022-08-12T10:11:20.368Z,37.19
2022-08-12T10:12:32.725Z,36.58
2022-08-12T10:13:35.595Z,35.41
2022-08-12T10:14:20.621Z,37.56
2022-08-12T10:16:02.029Z,36.49
2022-08-12T10:16:22.624Z,36.39
2022-08-12T10:17:19.621Z,34.42
2022-08-12T10:18:19.589Z,34.33
2022-08-12T10:19:19.561Z,34.52
2022-08-12T10:20:19.556Z,35.11
2022-08-12T10:21:19.575Z,36.09
2022-08-12T10:22:38.908Z,38.06
2022-08-12T10:23:20.519Z,37.54
2022-08-12T10:24:20.619Z,34.31
2022-08-12T10:25:19.500Z,34.90
2022-08-12T10:26:37.922Z,36.18
2022-08-12T10:27:20.492Z,35.66
2022-08-12T10:28:25.161Z,35.58
2022-08-12T10:30:02.968Z,35.68
2022-08-12T10:30:39.564Z,35.27
2022-08-12T10:31:20.446Z,34.59
2022-08-12T10:32:21.202Z,34.31
2022-08-12T10:33:31.064Z,34.51
2022-08-12T10:34:25.934Z,36.08
2022-08-12T10:35:20.425Z,37.74
2022-08-12T10:36:19.382Z,34.51
2022-08-12T10:38:31.984Z,35.88
2022-08-12T10:38:34.420Z,33.44
2022-08-12T10:39:59.963Z,35.50
2022-08-12T10:40:22.013Z,35.41
2022-08-12T10:41:20.959Z,35.02
2022-08-12T10:42:29.577Z,35.03
2022-08-12T10:43:20.521Z,37.37
2022-08-12T10:44:19.303Z,34.34
2022-08-12T10:45:19.283Z,33.26
2022-08-12T10:46:19.274Z,33.46
2022-08-12T10:47:26.642Z,33.56
2022-08-12T10:48:33.277Z,34.44
2022-08-12T10:50:03.268Z,34.15
2022-08-12T10:50:29.485Z,34.25
2022-08-12T10:52:04.611Z,35.62
2022-08-12T10:52:47.242Z,35.91
2022-08-12T10:53:20.217Z,34.34
2022-08-12T10:54:20.221Z,34.83
2022-08-12T10:55:20.178Z,34.54
2022-08-12T10:56:19.168Z,33.34
2022-08-12T10:58:27.491Z,34.23
2022-08-12T10:58:31.827Z,35.41
2022-08-12T10:59:20.138Z,34.03
2022-08-12T11:00:34.110Z,33.64
2022-08-12T11:01:50.086Z,32.46
2022-08-12T11:04:20.741Z,33.75
2022-08-12T11:04:23.264Z,33.05
2022-08-12T11:04:35.590Z,36.40
2022-08-12T11:07:03.502Z,37.46
2022-08-12T11:07:07.262Z,34.81
2022-08-12T11:08:33.758Z,35.80
2022-08-12T11:08:35.907Z,33.92
2022-08-12T11:09:41.964Z,34.41
2022-08-12T11:10:20.213Z,34.21
2022-08-12T11:12:08.260Z,34.01
2022-08-12T11:12:56.299Z,34.21
2022-08-12T11:13:19.982Z,33.92
2022-08-12T11:14:50.416Z,34.00
2022-08-12T11:15:21.331Z,33.12
2022-08-12T11:16:23.228Z,34.20
2022-08-12T11:17:43.562Z,34.00
2022-08-12T11:18:19.939Z,33.14
2022-08-12T11:19:22.474Z,34.31
2022-08-12T11:20:19.017Z,32.35
2022-08-12T11:21:18.893Z,33.94
2022-08-12T11:22:24.121Z,34.33
2022-08-12T11:23:24.589Z,31.87
2022-08-12T11:24:30.457Z,32.57
2022-08-12T11:25:19.879Z,32.68
2022-08-12T11:26:18.867Z,33.07
2022-08-12T11:27:18.831Z,33.95
2022-08-12T11:28:33.552Z,34.34
2022-08-12T11:29:22.140Z,33.54
2022-08-12T11:30:31.156Z,33.54
2022-08-12T11:31:19.800Z,33.46
2022-08-12T11:32:18.804Z,32.46
2022-08-12T11:33:24.184Z,33.15
2022-08-12T11:34:52.622Z,34.54
2022-08-12T11:35:19.748Z,33.44
2022-08-12T11:36:21.869Z,32.37
2022-08-12T11:37:25.795Z,32.27
2022-08-12T11:38:19.690Z,32.86
2022-08-12T11:39:18.734Z,32.17
2022-08-12T11:40:19.701Z,31.87
2022-08-12T11:41:31.808Z,32.38
2022-08-12T11:42:19.670Z,32.28
2022-08-12T11:43:20.543Z,33.94
2022-08-12T11:44:37.289Z,33.15
2022-08-12T11:45:19.614Z,33.05
2022-08-12T11:46:18.606Z,33.74
2022-08-12T11:47:18.615Z,32.25
2022-08-12T11:48:18.581Z,32.94
2022-08-12T11:49:30.733Z,33.70
2022-08-12T11:50:19.957Z,32.94
2022-08-12T11:51:18.548Z,31.84
2022-08-12T11:52:54.910Z,31.96
2022-08-12T11:53:58.045Z,34.51
2022-08-12T11:54:19.519Z,33.23
2022-08-12T11:55:18.505Z,33.82
2022-08-12T11:56:18.499Z,31.76
2022-08-12T11:57:22.859Z,32.43
2022-08-12T11:59:02.953Z,31.84
2022-08-12T12:02:02.279Z,32.06
2022-08-12T12:02:20.499Z,31.48
2022-08-12T12:03:18.436Z,31.79
2022-08-12T12:04:29.212Z,32.46
2022-08-12T12:05:19.403Z,34.92
2022-08-12T12:06:18.406Z,32.17
2022-08-12T12:07:18.384Z,31.77
2022-08-12T12:08:37.282Z,33.72
2022-08-12T12:09:19.378Z,33.92
2022-08-12T12:10:18.384Z,31.57
2022-08-12T12:11:18.344Z,31.65
2022-08-12T12:12:18.336Z,31.86
2022-08-12T12:14:05.326Z,32.34
2022-08-12T12:14:19.331Z,34.00
2022-08-12T12:15:24.898Z,31.45
2022-08-12T12:16:19.330Z,31.84
2022-08-12T12:17:18.279Z,30.47
2022-08-12T12:18:18.277Z,32.43
2022-08-12T12:19:19.224Z,32.73
2022-08-12T12:20:18.253Z,31.94
2022-08-12T12:21:18.240Z,32.14
2022-08-12T12:22:23.596Z,30.00
2022-08-12T12:23:28.717Z,31.76
2022-08-12T12:24:21.141Z,31.68
2022-08-12T12:25:19.799Z,33.05
2022-08-12T12:26:34.753Z,32.54
2022-08-12T12:27:19.450Z,31.97
2022-08-12T12:28:37.010Z,32.46
2022-08-12T12:30:18.914Z,31.27
2022-08-12T12:30:30.061Z,31.17
2022-08-12T12:32:10.078Z,31.96
2022-08-12T12:32:19.151Z,32.74
2022-08-12T12:33:18.316Z,31.86
2022-08-12T12:34:30.438Z,31.86
2022-08-12T12:36:17.122Z,31.19
2022-08-12T12:36:24.089Z,32.76
2022-08-12T12:38:03.687Z,31.48
2022-08-12T12:38:19.101Z,31.97
2022-08-12T12:39:18.099Z,33.15
2022-08-12T12:40:18.092Z,34.13
2022-08-12T12:41:18.045Z,32.45
2022-08-12T12:42:43.005Z,32.45
2022-08-12T12:43:28.873Z,31.87
2022-08-12T12:44:25.673Z,33.44
2022-08-12T12:45:20.427Z,32.06
2022-08-12T12:46:18.981Z,31.86
2022-08-12T12:47:29.316Z,31.87
2022-08-12T12:48:18.977Z,32.74
2022-08-12T12:49:17.966Z,33.04
2022-08-12T12:50:35.091Z,32.84
2022-08-12T12:51:49.068Z,30.39
2022-08-12T12:52:21.224Z,31.09
2022-08-12T12:54:06.412Z,32.17
2022-08-12T12:54:20.049Z,34.52
2022-08-12T12:55:17.880Z,33.54